Time;durP1;ratioP1;P1;durP2;ratioP2;P2;SDS_P1;SDS_P2;PMS_P1;PMS_P2;Temp;Humidity;BMP_temperature;BMP_pressure;BME280_temperature;BME280_humidity;BME280_pressure;Samples;Min_cycle;Max_cycle;Signal;HPM_P1;HPM_P2
2022/04/03 00:01:20;;;;;;;9.00;3.88;;;-0.30;99.90;;;;;;5041412;28;20049;-79
2022/04/03 00:03:46;;;;;;;8.88;4.00;;;-0.30;99.90;;;;;;5037090;28;20131;-79
2022/04/03 00:06:11;;;;;;;10.18;3.90;;;0.10;99.90;;;;;;5027847;28;20099;-78
2022/04/03 00:08:37;;;;;;;5.35;3.10;;;-0.30;99.90;;;;;;5034933;28;20516;-78
2022/04/03 00:11:03;;;;;;;8.70;3.42;;;-0.30;99.90;;;;;;5034508;28;20084;-78
2022/04/03 00:13:28;;;;;;;6.57;3.50;;;-0.50;99.90;;;;;;5032834;28;20052;-78
2022/04/03 00:15:56;;;;;;;7.70;4.15;;;-0.30;99.90;;;;;;5037269;28;20213;-78
2022/04/03 00:18:22;;;;;;;7.25;3.15;;;-0.30;99.90;;;;;;5035814;28;20057;-78
2022/04/03 00:20:48;;;;;;;6.53;3.67;;;-0.40;99.90;;;;;;5034698;28;20053;-78
2022/04/03 00:23:13;;;;;;;6.60;3.58;;;-0.40;99.90;;;;;;5038474;28;20045;-78
2022/04/03 00:25:39;;;;;;;6.63;3.63;;;-0.40;99.90;;;;;;5041821;28;20044;-77
2022/04/03 00:28:06;;;;;;;8.57;4.60;;;-0.40;99.90;;;;;;5037083;28;20049;-78
2022/04/03 00:30:32;;;;;;;8.60;5.10;;;-0.40;99.90;;;;;;5034756;28;20516;-78
2022/04/03 00:32:58;;;;;;;11.80;6.07;;;-0.40;99.90;;;;;;5029767;28;20504;-77
2022/04/03 00:35:24;;;;;;;11.85;6.63;;;-0.50;99.90;;;;;;5036710;28;20049;-78
2022/04/03 00:37:50;;;;;;;7.70;4.30;;;-0.50;99.90;;;;;;5042886;28;20060;-78
2022/04/03 00:40:16;;;;;;;8.98;4.95;;;-0.50;99.90;;;;;;5039275;28;20061;-78
2022/04/03 00:42:42;;;;;;;8.63;4.65;;;-0.50;99.90;;;;;;5030989;28;20124;-80
2022/04/03 00:45:08;;;;;;;9.27;4.15;;;-0.50;99.90;;;;;;5028680;28;21020;-80
2022/04/03 00:47:34;;;;;;;7.57;4.30;;;-0.60;99.90;;;;;;5031802;28;20099;-78
2022/04/03 00:50:00;;;;;;;10.15;4.70;;;-0.60;99.90;;;;;;5042399;28;20510;-79
2022/04/03 00:52:27;;;;;;;8.38;4.47;;;-0.60;99.90;;;;;;5039344;28;20048;-79
2022/04/03 00:54:53;;;;;;;8.40;4.45;;;-0.60;99.90;;;;;;5032387;28;20158;-79
2022/04/03 00:57:21;;;;;;;7.88;4.55;;;-0.70;99.90;;;;;;5043924;28;20049;-79
2022/04/03 00:59:49;;;;;;;10.20;4.88;;;-0.70;99.90;;;;;;5042695;28;20151;-78
2022/04/03 01:02:15;;;;;;;6.82;3.65;;;-0.70;99.90;;;;;;5042006;28;20060;-79
2022/04/03 01:04:41;;;;;;;9.32;3.90;;;-0.70;99.90;;;;;;5032105;28;20060;-80
2022/04/03 01:07:07;;;;;;;7.35;4.00;;;-0.70;99.90;;;;;;5043907;28;20041;-79
2022/04/03 01:09:33;;;;;;;7.13;3.53;;;-0.60;99.90;;;;;;5038494;28;20141;-79
2022/04/03 01:11:59;;;;;;;7.32;4.05;;;-0.60;99.90;;;;;;5044157;28;20060;-79
2022/04/03 01:14:35;;;;;;;7.18;3.85;;;-0.50;99.90;;;;;;5039182;28;20507;-79
2022/04/03 01:17:01;;;;;;;10.15;3.90;;;-0.50;99.90;;;;;;5044921;28;20200;-79
2022/04/03 01:19:28;;;;;;;6.40;3.40;;;0.60;99.90;;;;;;5029211;28;20500;-79
2022/04/03 01:21:53;;;;;;;7.88;3.45;;;-0.60;99.90;;;;;;5030551;28;20069;-80
2022/04/03 01:24:20;;;;;;;8.57;3.63;;;-0.10;99.90;;;;;;5036408;28;20049;-80
2022/04/03 01:26:47;;;;;;;9.85;3.63;;;-0.60;99.90;;;;;;5039876;28;20047;-79
2022/04/03 01:29:12;;;;;;;8.45;3.55;;;-0.60;99.90;;;;;;5036219;28;20107;-79
2022/04/03 01:31:38;;;;;;;8.00;3.08;;;-0.60;99.90;;;;;;5038612;28;20037;-79
2022/04/03 01:34:04;;;;;;;9.40;3.72;;;-0.70;99.90;;;;;;5034992;28;20053;-79
2022/04/03 01:36:29;;;;;;;9.00;3.28;;;-0.70;99.90;;;;;;5043226;28;20045;-79
2022/04/03 01:38:55;;;;;;;6.70;3.78;;;-0.70;99.90;;;;;;5041549;28;20053;-79
2022/04/03 01:41:20;;;;;;;7.70;3.40;;;-0.70;99.90;;;;;;5039641;28;20568;-80
2022/04/03 01:43:46;;;;;;;9.38;4.55;;;-0.80;99.90;;;;;;5036214;28;20053;-79
2022/04/03 01:46:12;;;;;;;8.57;3.45;;;-0.80;99.90;;;;;;5041265;28;20102;-80
2022/04/03 01:48:37;;;;;;;9.20;4.30;;;-0.80;99.90;;;;;;5033325;28;20551;-80
2022/04/03 01:51:03;;;;;;;8.38;4.32;;;-0.90;99.90;;;;;;5033867;28;20128;-80
2022/04/03 01:53:28;;;;;;;8.27;3.90;;;-0.90;99.90;;;;;;5038010;28;20061;-80
2022/04/03 01:55:59;;;;;;;7.65;3.40;;;-0.90;99.90;;;;;;5037294;28;20087;-80
2022/04/03 01:58:24;;;;;;;9.30;4.13;;;-0.90;99.90;;;;;;5042618;28;20048;-79
2022/04/03 02:00:50;;;;;;;8.07;3.28;;;-0.90;99.90;;;;;;5033969;28;20045;-79
2022/04/03 02:03:17;;;;;;;7.22;3.40;;;-0.90;99.90;;;;;;5028195;28;20140;-80
2022/04/03 02:05:43;;;;;;;8.55;3.30;;;-0.90;99.90;;;;;;5035211;28;20056;-79
2022/04/03 02:08:09;;;;;;;7.80;3.70;;;-0.90;99.90;;;;;;5035143;28;20068;-80
2022/04/03 02:10:34;;;;;;;8.55;3.50;;;-0.90;99.90;;;;;;5037933;28;20060;-79
2022/04/03 02:13:00;;;;;;;10.77;3.50;;;-1.00;99.90;;;;;;5042609;28;20103;-80
2022/04/03 02:15:25;;;;;;;8.45;3.20;;;-1.00;99.90;;;;;;5043387;28;20072;-80
2022/04/03 02:17:51;;;;;;;4.82;2.65;;;-1.00;99.90;;;;;;5037061;28;20080;-80
2022/04/03 02:20:17;;;;;;;6.47;3.30;;;-1.00;99.90;;;;;;5041239;28;20610;-79
2022/04/03 02:22:42;;;;;;;8.50;3.50;;;-1.00;99.90;;;;;;5033545;28;20041;-79
2022/04/03 02:25:13;;;;;;;5.90;3.35;;;-1.10;99.90;;;;;;5028460;28;20049;-79
2022/04/03 02:27:40;;;;;;;7.07;3.67;;;-1.10;99.90;;;;;;5037103;28;20564;-79
2022/04/03 02:30:09;;;;;;;4.85;2.58;;;-1.10;99.90;;;;;;5030682;28;20060;-78
2022/04/03 02:32:36;;;;;;;5.57;2.95;;;-1.10;99.90;;;;;;5029046;28;20042;-79
2022/04/03 02:35:04;;;;;;;7.18;3.30;;;-1.10;99.90;;;;;;5027214;28;20640;-79
2022/04/03 02:37:30;;;;;;;5.85;2.63;;;-1.00;99.90;;;;;;5032518;28;20037;-79
2022/04/03 02:39:56;;;;;;;4.72;2.17;;;-1.00;99.90;;;;;;5034565;28;20493;-79
2022/04/03 02:42:22;;;;;;;8.98;2.80;;;-0.90;99.90;;;;;;5031931;28;20231;-79
2022/04/03 02:44:47;;;;;;;5.93;2.63;;;-0.90;99.90;;;;;;5033855;28;20123;-79
2022/04/03 02:47:14;;;;;;;5.43;2.50;;;-0.80;99.90;;;;;;5044307;28;20045;-79
2022/04/03 02:49:39;;;;;;;4.72;2.47;;;-0.80;99.90;;;;;;5040135;28;20529;-79
2022/04/03 02:52:05;;;;;;;4.35;2.33;;;-0.70;99.90;;;;;;5046641;28;20127;-79
2022/04/03 02:54:31;;;;;;;5.35;2.60;;;-0.60;99.90;;;;;;5040460;28;20126;-79
2022/04/03 02:56:57;;;;;;;6.88;2.70;;;-0.60;99.90;;;;;;5040296;28;20057;-78
2022/04/03 02:59:23;;;;;;;6.22;2.90;;;-0.50;99.90;;;;;;5045560;28;20052;-79
2022/04/03 03:01:48;;;;;;;4.68;2.58;;;-0.50;99.90;;;;;;5034833;28;20049;-79
2022/04/03 03:04:14;;;;;;;6.40;2.65;;;-0.40;99.90;;;;;;5038091;28;20041;-80
2022/04/03 03:06:40;;;;;;;6.25;2.80;;;-0.40;99.90;;;;;;5036106;28;20485;-79
2022/04/03 03:09:06;;;;;;;6.28;2.63;;;-0.30;99.90;;;;;;5044539;28;20060;-79
2022/04/03 03:11:32;;;;;;;6.55;3.10;;;-0.30;99.90;;;;;;5046380;28;20061;-79
2022/04/03 03:13:57;;;;;;;5.72;2.75;;;-0.20;99.90;;;;;;5047155;28;20040;-79
2022/04/03 03:16:23;;;;;;;7.28;2.90;;;1.00;99.90;;;;;;5044086;28;20053;-79
2022/04/03 03:18:48;;;;;;;7.50;2.80;;;-0.10;99.90;;;;;;5046370;28;20048;-79
2022/04/03 03:21:15;;;;;;;6.63;3.25;;;0.00;99.90;;;;;;5042743;28;20104;-79
2022/04/03 03:23:41;;;;;;;5.80;3.20;;;0.10;99.90;;;;;;5046181;28;20056;-79
2022/04/03 03:26:07;;;;;;;6.78;3.13;;;0.10;99.90;;;;;;5040026;28;20045;-79
2022/04/03 03:28:33;;;;;;;8.40;3.28;;;0.20;99.90;;;;;;5037688;28;20068;-79
2022/04/03 03:30:58;;;;;;;5.55;3.20;;;0.30;99.90;;;;;;5044253;28;20677;-79
2022/04/03 03:33:24;;;;;;;5.25;2.90;;;0.40;99.90;;;;;;5043417;28;20052;-79
2022/04/03 03:35:50;;;;;;;6.45;2.72;;;0.40;99.90;;;;;;5044931;28;20040;-79
2022/04/03 03:38:15;;;;;;;6.03;3.10;;;0.50;99.90;;;;;;5040669;28;20056;-79
2022/04/03 03:40:41;;;;;;;5.03;2.90;;;0.50;99.90;;;;;;5047040;28;20055;-79
2022/04/03 03:43:09;;;;;;;5.93;2.70;;;0.60;99.90;;;;;;5039022;28;20049;-80
2022/04/03 03:45:36;;;;;;;6.47;3.22;;;0.60;99.90;;;;;;5041766;28;20056;-79
2022/04/03 03:48:01;;;;;;;5.13;2.88;;;0.70;99.90;;;;;;5045235;28;20112;-79
2022/04/03 03:50:27;;;;;;;8.05;3.10;;;0.70;99.90;;;;;;5041819;28;20163;-79
2022/04/03 03:52:52;;;;;;;5.30;3.15;;;0.70;99.90;;;;;;5046396;28;20747;-79
2022/04/03 03:55:18;;;;;;;8.02;3.05;;;0.70;99.90;;;;;;5040078;28;20180;-79
2022/04/03 03:57:45;;;;;;;6.72;3.45;;;0.70;99.90;;;;;;5043438;28;20067;-79
2022/04/03 04:00:11;;;;;;;7.03;3.08;;;0.70;99.90;;;;;;5042265;28;20054;-79
2022/04/03 04:02:37;;;;;;;5.20;3.20;;;1.40;99.90;;;;;;5044979;28;20124;-79
2022/04/03 04:05:04;;;;;;;7.30;3.35;;;0.70;99.90;;;;;;5044897;28;20861;-79
2022/04/03 04:07:47;;;;;;;9.75;3.10;;;0.70;99.90;;;;;;5042812;28;20721;-79
2022/04/03 04:10:14;;;;;;;4.95;3.20;;;0.70;99.90;;;;;;5043725;28;20047;-79
2022/04/03 04:12:45;;;;;;;6.97;3.55;;;0.70;99.90;;;;;;5041093;28;20050;-80
2022/04/03 04:15:12;;;;;;;5.20;2.97;;;0.70;99.90;;;;;;5043760;28;20036;-79
2022/04/03 04:17:41;;;;;;;4.80;2.92;;;0.70;99.90;;;;;;5043918;28;20492;-79
2022/04/03 04:20:09;;;;;;;5.93;3.15;;;0.70;99.90;;;;;;5043273;28;20060;-79
2022/04/03 04:22:35;;;;;;;5.38;2.85;;;0.70;99.90;;;;;;5038186;28;20045;-79
2022/04/03 04:25:01;;;;;;;5.10;2.78;;;0.60;99.90;;;;;;5040492;28;20056;-79
2022/04/03 04:27:27;;;;;;;8.10;2.47;;;0.60;99.90;;;;;;5040694;28;20049;-79
2022/04/03 04:29:52;;;;;;;5.32;2.63;;;0.60;99.90;;;;;;5042934;28;20572;-79
2022/04/03 04:32:21;;;;;;;5.28;2.67;;;0.60;99.90;;;;;;5040058;28;20844;-79
2022/04/03 04:34:50;;;;;;;9.18;2.38;;;0.60;99.90;;;;;;5041940;28;20049;-79
2022/04/03 04:37:17;;;;;;;6.47;2.78;;;0.50;99.90;;;;;;5042025;28;20071;-79
2022/04/03 04:39:43;;;;;;;7.38;3.00;;;0.50;99.90;;;;;;5040552;28;20049;-79
2022/04/03 04:42:09;;;;;;;6.32;3.15;;;0.40;99.90;;;;;;5035337;28;20063;-79
2022/04/03 04:44:34;;;;;;;7.00;3.85;;;0.40;99.90;;;;;;5042232;28;20571;-79
2022/04/03 04:47:01;;;;;;;6.75;3.45;;;0.40;99.90;;;;;;5045422;28;20047;-79
2022/04/03 04:49:27;;;;;;;6.43;3.38;;;0.50;99.90;;;;;;5038232;28;20052;-80
2022/04/03 04:51:52;;;;;;;6.40;2.90;;;0.40;99.90;;;;;;5042148;28;20113;-80
2022/04/03 04:54:18;;;;;;;7.35;2.95;;;0.40;99.90;;;;;;5032016;28;20045;-80
2022/04/03 04:56:43;;;;;;;8.23;2.92;;;0.60;99.90;;;;;;5040073;28;20520;-80
2022/04/03 04:59:10;;;;;;;5.55;3.15;;;0.50;99.90;;;;;;5039144;28;20094;-79
2022/04/03 05:01:36;;;;;;;6.35;3.08;;;0.50;99.90;;;;;;5041989;28;20057;-80
2022/04/03 05:04:02;;;;;;;6.40;2.83;;;1.40;99.90;;;;;;5042000;28;20469;-79
2022/04/03 05:06:28;;;;;;;6.22;3.00;;;0.40;99.90;;;;;;5034858;28;20045;-79
2022/04/03 05:08:54;;;;;;;7.55;3.47;;;0.40;99.90;;;;;;5032350;28;20096;-79
2022/04/03 05:11:21;;;;;;;5.93;3.83;;;0.30;99.90;;;;;;5041103;28;20048;-79
2022/04/03 05:13:47;;;;;;;6.65;4.07;;;0.20;99.90;;;;;;5040240;28;20080;-80
2022/04/03 05:16:13;;;;;;;7.80;4.18;;;0.20;99.90;;;;;;5040449;28;20578;-79
2022/04/03 05:18:39;;;;;;;6.57;4.05;;;0.20;99.90;;;;;;5032140;28;20051;-80
2022/04/03 05:21:07;;;;;;;6.57;4.72;;;0.10;99.90;;;;;;5035378;28;20044;-79
2022/04/03 05:23:33;;;;;;;8.05;4.13;;;0.10;99.90;;;;;;5036473;28;20499;-80
2022/04/03 05:25:58;;;;;;;7.38;4.18;;;0.10;99.90;;;;;;5040498;28;20044;-80
2022/04/03 05:28:26;;;;;;;7.50;5.15;;;0.00;99.90;;;;;;5041368;28;20097;-80
2022/04/03 05:30:52;;;;;;;6.97;4.38;;;0.00;99.90;;;;;;5040834;28;20102;-79
2022/04/03 05:33:18;;;;;;;6.00;3.92;;;-0.10;99.90;;;;;;5036725;28;20134;-79
2022/04/03 05:35:44;;;;;;;7.07;3.35;;;-0.80;99.90;;;;;;5037178;28;20045;-80
2022/04/03 05:38:10;;;;;;;5.50;3.17;;;-0.10;99.90;;;;;;5038791;28;20786;-80
2022/04/03 05:40:35;;;;;;;7.57;3.22;;;-0.10;99.90;;;;;;5034703;28;20041;-80
2022/04/03 05:43:01;;;;;;;5.97;3.30;;;-0.10;99.90;;;;;;5036767;28;20135;-80
2022/04/03 05:45:27;;;;;;;6.72;3.38;;;-0.10;99.90;;;;;;5042503;28;20052;-80
2022/04/03 05:47:53;;;;;;;7.53;3.42;;;-0.20;99.90;;;;;;5037668;28;20063;-79
2022/04/03 05:50:19;;;;;;;6.20;3.25;;;-0.10;99.90;;;;;;5040471;28;20045;-80
2022/04/03 05:52:50;;;;;;;5.97;3.30;;;-0.10;99.90;;;;;;5036518;28;20419;-81
2022/04/03 05:55:17;;;;;;;8.93;3.40;;;-0.10;99.90;;;;;;5035483;28;20049;-84
2022/04/03 05:57:46;;;;;;;5.30;2.65;;;-0.10;99.90;;;;;;5026219;28;20053;-85
2022/04/03 06:00:13;;;;;;;5.88;3.20;;;0.00;99.90;;;;;;5026015;28;20061;-83
2022/04/03 06:02:53;;;;;;;7.65;2.90;;;0.10;99.90;;;;;;5022936;28;20057;-84
2022/04/03 06:05:20;;;;;;;7.40;3.85;;;0.20;99.90;;;;;;5031924;28;20210;-81
2022/04/03 06:07:46;;;;;;;7.28;3.20;;;0.30;99.90;;;;;;5029757;28;20041;-84
2022/04/03 06:10:13;;;;;;;9.98;4.68;;;-0.30;99.90;;;;;;5032454;28;20107;-82
2022/04/03 06:12:56;;;;;;;5.47;2.65;;;0.40;99.90;;;;;;5022828;28;20136;-82
2022/04/03 06:15:23;;;;;;;5.85;2.97;;;0.40;99.90;;;;;;5025393;28;20547;-82
2022/04/03 06:17:52;;;;;;;8.93;3.55;;;0.40;99.90;;;;;;5030591;28;20103;-83
2022/04/03 06:20:19;;;;;;;6.43;3.15;;;0.40;99.90;;;;;;5028240;28;20045;-84
2022/04/03 06:22:45;;;;;;;5.28;2.80;;;1.20;99.90;;;;;;5034621;28;20115;-81
2022/04/03 06:25:12;;;;;;;5.57;3.05;;;0.50;99.90;;;;;;5036958;28;20159;-82
2022/04/03 06:27:38;;;;;;;7.50;3.28;;;0.50;99.90;;;;;;5036393;28;20770;-81
2022/04/03 06:30:04;;;;;;;7.68;2.78;;;0.50;99.90;;;;;;5040552;28;20052;-83
2022/04/03 06:32:30;;;;;;;6.47;3.00;;;0.60;99.90;;;;;;5034984;28;20070;-82
2022/04/03 06:34:56;;;;;;;7.60;3.10;;;0.60;99.90;;;;;;5036384;28;20766;-83
2022/04/03 06:37:22;;;;;;;8.95;2.72;;;0.70;99.90;;;;;;5033810;28;20053;-83
2022/04/03 06:39:48;;;;;;;4.38;2.30;;;0.70;99.90;;;;;;5034662;28;20048;-83
2022/04/03 06:42:14;;;;;;;7.10;3.58;;;0.90;99.90;;;;;;5028384;28;20048;-83
2022/04/03 06:44:40;;;;;;;4.43;2.47;;;1.00;99.90;;;;;;5030231;28;20086;-82
2022/04/03 06:47:06;;;;;;;7.93;2.42;;;1.20;99.90;;;;;;5025384;28;20495;-83
2022/04/03 06:49:33;;;;;;;6.63;2.42;;;1.20;99.90;;;;;;5024810;28;20110;-83
2022/04/03 06:51:59;;;;;;;5.90;2.28;;;1.30;99.90;;;;;;5037814;28;20041;-83
2022/04/03 06:54:24;;;;;;;6.28;2.58;;;1.40;99.90;;;;;;5030854;28;20060;-84
2022/04/03 06:56:52;;;;;;;6.65;2.75;;;1.40;99.90;;;;;;5028816;28;20113;-82
2022/04/03 06:59:18;;;;;;;7.53;2.35;;;0.60;99.90;;;;;;5037846;28;20575;-84
2022/04/03 07:01:44;;;;;;;6.68;3.00;;;1.50;99.90;;;;;;5035234;28;20094;-84
2022/04/03 07:04:09;;;;;;;6.25;2.55;;;1.60;99.90;;;;;;5041559;28;20076;-85
2022/04/03 07:06:35;;;;;;;8.75;2.72;;;1.60;99.90;;;;;;5044533;28;20049;-88
2022/04/03 07:09:00;;;;;;;4.43;2.25;;;1.70;99.90;;;;;;5037276;28;20044;-81
2022/04/03 07:11:26;;;;;;;7.05;2.80;;;1.80;99.90;;;;;;5043963;28;20164;-85
2022/04/03 07:13:51;;;;;;;4.63;2.55;;;1.80;99.90;;;;;;5036109;28;20058;-83
2022/04/03 07:16:17;;;;;;;12.85;3.00;;;1.90;99.90;;;;;;5037525;28;20465;-84
2022/04/03 07:18:43;;;;;;;7.05;2.55;;;1.90;99.90;;;;;;5037849;28;20091;-83
2022/04/03 07:21:08;;;;;;;7.82;2.70;;;2.00;99.90;;;;;;5028529;28;20045;-85
2022/04/03 07:23:34;;;;;;;8.73;3.15;;;2.00;99.90;;;;;;5031577;28;20052;-80
2022/04/03 07:25:59;;;;;;;7.25;2.50;;;2.10;99.90;;;;;;5035219;28;20045;-80
2022/04/03 07:28:25;;;;;;;3.80;2.38;;;2.10;99.90;;;;;;5032339;28;20057;-80
2022/04/03 07:30:51;;;;;;;6.88;2.28;;;2.20;99.90;;;;;;5032830;28;20856;-80
2022/04/03 07:33:20;;;;;;;4.72;2.47;;;2.40;99.90;;;;;;5025997;28;20048;-79
2022/04/03 07:35:47;;;;;;;5.32;2.30;;;2.60;99.90;;;;;;5030577;28;20863;-79
2022/04/03 07:38:12;;;;;;;5.75;2.28;;;2.50;99.90;;;;;;5039986;28;20040;-79
2022/04/03 07:40:38;;;;;;;4.50;1.70;;;2.60;99.90;;;;;;5029751;28;20045;-80
2022/04/03 07:43:04;;;;;;;6.10;1.88;;;2.70;99.90;;;;;;5031628;28;20183;-80
2022/04/03 07:45:29;;;;;;;6.85;1.95;;;2.80;99.90;;;;;;5024828;28;20040;-80
2022/04/03 07:47:55;;;;;;;6.80;2.58;;;2.90;99.90;;;;;;5040314;28;20506;-80
2022/04/03 07:50:20;;;;;;;3.03;1.40;;;2.90;99.90;;;;;;5043324;28;20064;-80
2022/04/03 07:52:47;;;;;;;4.75;1.50;;;2.90;99.90;;;;;;5043036;28;20045;-78
2022/04/03 07:55:13;;;;;;;6.30;1.80;;;3.00;99.90;;;;;;5040432;28;20124;-78
2022/04/03 07:57:40;;;;;;;4.38;1.30;;;3.00;99.90;;;;;;5038871;28;20576;-78
2022/04/03 08:00:07;;;;;;;5.72;1.40;;;3.10;99.90;;;;;;5039812;28;20109;-77
2022/04/03 08:02:35;;;;;;;2.53;1.27;;;3.20;99.90;;;;;;5037851;28;20040;-79
2022/04/03 08:05:00;;;;;;;4.25;1.35;;;3.30;99.90;;;;;;5038600;28;20053;-78
2022/04/03 08:07:38;;;;;;;5.63;1.65;;;3.40;99.90;;;;;;5041097;28;20045;-79
2022/04/03 08:10:06;;;;;;;3.40;1.33;;;3.60;99.90;;;;;;5032753;28;20120;-78
2022/04/03 08:12:32;;;;;;;8.25;1.25;;;3.70;99.90;;;;;;5038723;28;20048;-78
2022/04/03 08:14:58;;;;;;;2.35;1.00;;;3.80;99.90;;;;;;5033116;28;20053;-79
2022/04/03 08:17:23;;;;;;;1.73;0.80;;;3.90;99.90;;;;;;5035652;28;20047;-78
2022/04/03 08:19:49;;;;;;;5.85;1.00;;;4.00;99.90;;;;;;5032797;28;20074;-78
2022/04/03 08:22:15;;;;;;;4.93;1.13;;;4.10;99.90;;;;;;5034932;28;20114;-79
2022/04/03 08:24:44;;;;;;;2.50;0.90;;;4.10;99.90;;;;;;5029042;28;20456;-79
2022/04/03 08:27:10;;;;;;;3.08;0.75;;;4.30;99.90;;;;;;5022904;28;20058;-80
2022/04/03 08:29:36;;;;;;;2.40;0.80;;;4.40;99.90;;;;;;5031884;28;20053;-81
2022/04/03 08:32:02;;;;;;;2.25;0.70;;;4.40;99.90;;;;;;5028410;28;20134;-81
2022/04/03 08:34:27;;;;;;;2.53;0.80;;;4.50;99.90;;;;;;5029226;28;20053;-81
2022/04/03 08:36:53;;;;;;;3.83;1.00;;;4.60;99.90;;;;;;5036086;28;20049;-80
2022/04/03 08:39:21;;;;;;;3.70;1.00;;;4.70;99.90;;;;;;5029119;28;20053;-80
2022/04/03 08:41:47;;;;;;;2.55;0.80;;;4.80;99.90;;;;;;5032068;28;20150;-81
2022/04/03 08:44:13;;;;;;;3.55;0.98;;;4.90;99.90;;;;;;5035159;28;20594;-80
2022/04/03 08:46:45;;;;;;;4.22;1.02;;;5.00;99.90;;;;;;5024384;28;20076;-80
2022/04/03 08:49:19;;;;;;;2.30;1.08;;;5.20;99.90;;;;;;5036418;28;20052;-79
2022/04/03 08:51:46;;;;;;;3.45;0.88;;;5.20;99.90;;;;;;5044204;28;20049;-78
2022/04/03 08:54:14;;;;;;;5.47;0.98;;;6.40;99.90;;;;;;5037376;28;20061;-80
2022/04/03 08:56:42;;;;;;;3.10;0.80;;;5.50;99.90;;;;;;5037538;28;20522;-79
2022/04/03 08:59:08;;;;;;;7.18;1.40;;;5.60;99.90;;;;;;5038454;28;20114;-79
2022/04/03 09:01:34;;;;;;;4.45;0.70;;;5.80;99.90;;;;;;5038619;28;20052;-79
2022/04/03 09:04:02;;;;;;;3.03;0.65;;;5.90;99.90;;;;;;5036344;28;20057;-78
2022/04/03 09:06:27;;;;;;;3.38;0.65;;;6.00;99.90;;;;;;5033140;28;20049;-79
2022/04/03 09:08:53;;;;;;;4.03;1.13;;;6.70;99.90;;;;;;5031630;28;20610;-79
2022/04/03 09:11:19;;;;;;;1.75;0.70;;;6.20;99.90;;;;;;5034032;28;20048;-80
2022/04/03 09:13:45;;;;;;;1.92;0.77;;;6.40;99.90;;;;;;5029726;28;20049;-80
2022/04/03 09:16:12;;;;;;;3.65;0.90;;;6.40;99.90;;;;;;5030369;28;20128;-79
2022/04/03 09:18:53;;;;;;;3.65;0.80;;;6.60;99.90;;;;;;5030026;28;20055;-79
2022/04/03 09:21:26;;;;;;;5.60;1.05;;;6.80;99.90;;;;;;5033272;28;20053;-79
2022/04/03 09:24:06;;;;;;;1.17;0.60;;;6.90;99.90;;;;;;5030565;28;20053;-79
2022/04/03 09:26:33;;;;;;;3.53;0.80;;;6.90;99.90;;;;;;5030040;28;20480;-78
2022/04/03 09:29:07;;;;;;;1.73;0.70;;;6.80;99.90;;;;;;5035053;28;20858;-83
2022/04/03 09:31:33;;;;;;;1.52;0.55;;;6.70;99.90;;;;;;5038164;28;20044;-79
2022/04/03 09:34:03;;;;;;;2.20;1.15;;;6.80;99.90;;;;;;5039154;28;20064;-78
2022/04/03 09:36:30;;;;;;;1.23;0.57;;;6.90;99.90;;;;;;5034386;28;20049;-79
2022/04/03 09:39:08;;;;;;;4.32;0.80;;;7.20;99.90;;;;;;5036529;28;20044;-79
2022/04/03 09:41:58;;;;;;;2.13;0.40;;;7.50;99.90;;;;;;5032452;28;20461;-79
2022/04/03 09:44:28;;;;;;;2.30;0.50;;;7.70;99.90;;;;;;5031273;28;20152;-78
2022/04/03 09:47:17;;;;;;;1.38;0.57;;;7.70;99.90;;;;;;5038443;28;20033;-78
2022/04/03 09:49:55;;;;;;;2.38;0.70;;;7.60;99.90;;;;;;5036669;28;20049;-77
2022/04/03 09:52:56;;;;;;;2.95;0.60;;;7.50;99.90;;;;;;5036569;28;20057;-78
2022/04/03 09:55:24;;;;;;;8.38;1.00;;;7.80;99.90;;;;;;5008539;28;20813;-78
2022/04/03 09:58:04;;;;;;;1.65;0.60;;;7.20;99.90;;;;;;5024930;28;20833;-78
2022/04/03 10:00:41;;;;;;;2.42;0.80;;;7.10;99.90;;;;;;5029592;28;20057;-78
2022/04/03 10:03:10;;;;;;;2.65;0.50;;;7.20;99.90;;;;;;5033918;28;20473;-78
2022/04/03 10:05:36;;;;;;;3.30;0.60;;;7.40;99.90;;;;;;5034042;28;20157;-78
2022/04/03 10:08:04;;;;;;;1.42;0.40;;;7.40;99.90;;;;;;5037374;28;20049;-78
2022/04/03 10:10:35;;;;;;;6.00;0.77;;;7.30;99.90;;;;;;5031894;28;20052;-78
2022/04/03 10:13:02;;;;;;;2.53;0.60;;;7.10;99.90;;;;;;5036903;28;20511;-78
2022/04/03 10:15:28;;;;;;;2.78;0.65;;;7.00;99.90;;;;;;5036038;28;20048;-79
2022/04/03 10:17:57;;;;;;;1.85;0.60;;;7.10;99.90;;;;;;5040989;28;20044;-77
2022/04/03 10:20:30;;;;;;;2.78;0.40;;;7.40;99.90;;;;;;5031072;28;20122;-78
2022/04/03 10:23:17;;;;;;;2.33;0.45;;;7.70;99.90;;;;;;5034720;28;20053;-77
2022/04/03 10:25:46;;;;;;;1.60;0.38;;;8.00;99.90;;;;;;5026530;28;20048;-77
2022/04/03 10:28:12;;;;;;;2.13;0.35;;;8.10;99.90;;;;;;5029143;28;20200;-78
2022/04/03 10:30:45;;;;;;;2.25;0.40;;;8.30;99.90;;;;;;5029222;28;20087;-78
2022/04/03 10:33:20;;;;;;;3.70;0.40;;;8.50;99.90;;;;;;5027046;28;20051;-78
2022/04/03 10:35:48;;;;;;;3.35;0.50;;;8.60;99.90;;;;;;5031389;28;20049;-77
2022/04/03 10:38:14;;;;;;;2.30;0.70;;;8.80;99.90;;;;;;5024127;28;20045;-78
2022/04/03 10:40:54;;;;;;;1.92;0.50;;;8.90;99.90;;;;;;5031316;28;20601;-78
2022/04/03 10:43:27;;;;;;;1.67;0.43;;;9.10;99.90;;;;;;5029869;28;20762;-78
2022/04/03 10:45:53;;;;;;;1.92;0.40;;;9.20;99.90;;;;;;5025791;28;20038;-77
2022/04/03 10:48:21;;;;;;;1.45;0.50;;;9.50;99.90;;;;;;5025836;28;20056;-78
2022/04/03 10:51:11;;;;;;;1.13;0.40;;;9.70;99.90;;;;;;5030161;28;20845;-78
2022/04/03 10:53:40;;;;;;;2.13;0.32;;;9.70;99.90;;;;;;5025260;28;20057;-78
2022/04/03 10:56:08;;;;;;;2.47;0.60;;;9.50;99.50;;;;;;5032688;28;20045;-77
2022/04/03 10:58:39;;;;;;;1.55;0.55;;;9.20;99.90;;;;;;5033807;28;20175;-78
2022/04/03 11:01:05;;;;;;;3.50;0.70;;;8.80;99.90;;;;;;5030910;28;20648;-79
2022/04/03 11:03:33;;;;;;;2.55;0.50;;;8.50;99.90;;;;;;5032962;28;20041;-77
2022/04/03 11:06:18;;;;;;;3.85;0.50;;;8.50;99.90;;;;;;5036408;28;20048;-77
2022/04/03 11:08:53;;;;;;;3.28;0.88;;;8.30;99.90;;;;;;5032803;28;20045;-78
2022/04/03 11:11:43;;;;;;;3.53;0.70;;;8.40;99.90;;;;;;5032725;28;20591;-78
2022/04/03 11:14:11;;;;;;;2.97;0.50;;;8.70;99.90;;;;;;5029814;28;20742;-78
2022/04/03 11:16:50;;;;;;;4.55;0.63;;;9.10;99.90;;;;;;5036370;28;20571;-78
2022/04/03 11:19:36;;;;;;;1.85;0.52;;;9.40;99.90;;;;;;5039944;28;20098;-78
2022/04/03 11:22:03;;;;;;;1.73;0.40;;;9.60;99.90;;;;;;5034506;28;20042;-79
2022/04/03 11:24:30;;;;;;;1.73;0.50;;;9.40;99.90;;;;;;5033809;28;20091;-78
2022/04/03 11:26:56;;;;;;;2.03;0.68;;;9.00;99.90;;;;;;5037195;28;20057;-78
2022/04/03 11:29:22;;;;;;;4.97;0.90;;;8.70;99.90;;;;;;5032570;28;20593;-78
2022/04/03 11:31:49;;;;;;;3.13;0.70;;;8.40;99.90;;;;;;5035195;28;20041;-78
2022/04/03 11:34:14;;;;;;;3.17;0.70;;;8.10;99.90;;;;;;5041639;28;20036;-77
2022/04/03 11:36:41;;;;;;;3.80;0.80;;;7.90;99.90;;;;;;5039486;28;20167;-78
2022/04/03 11:39:10;;;;;;;3.05;0.68;;;7.80;99.90;;;;;;5041942;28;20044;-77
2022/04/03 11:41:38;;;;;;;3.78;0.80;;;7.70;99.90;;;;;;5034679;28;20056;-77
2022/04/03 11:44:10;;;;;;;2.33;0.90;;;7.60;99.90;;;;;;5031551;28;20040;-78
2022/04/03 11:46:43;;;;;;;2.97;0.70;;;7.50;99.90;;;;;;5036528;28;20037;-78
2022/04/03 11:49:26;;;;;;;3.00;1.00;;;7.50;99.90;;;;;;5036736;28;20461;-78
2022/04/03 11:52:03;;;;;;;3.80;1.05;;;7.50;99.90;;;;;;5042211;28;20045;-78
2022/04/03 11:54:29;;;;;;;2.08;0.80;;;7.40;99.90;;;;;;5042469;28;20394;-78
2022/04/03 11:57:10;;;;;;;1.80;0.80;;;7.40;99.90;;;;;;5037966;28;20041;-78
2022/04/03 11:59:38;;;;;;;4.40;0.82;;;7.50;99.90;;;;;;5036305;28;20642;-78
2022/04/03 12:02:11;;;;;;;4.00;0.95;;;8.10;99.90;;;;;;5039554;28;20068;-78
2022/04/03 12:04:39;;;;;;;2.70;1.00;;;7.70;99.90;;;;;;5038985;28;20048;-78
2022/04/03 12:07:05;;;;;;;4.03;0.68;;;7.80;99.90;;;;;;5029526;28;20080;-79
2022/04/03 12:09:32;;;;;;;2.35;0.70;;;7.90;99.90;;;;;;5026759;28;20790;-79
2022/04/03 12:12:04;;;;;;;4.60;1.00;;;7.90;99.90;;;;;;5036844;28;20148;-80
2022/04/03 12:14:31;;;;;;;3.75;0.93;;;7.90;99.90;;;;;;5036037;28;20053;-79
2022/04/03 12:17:03;;;;;;;3.55;0.95;;;7.90;99.90;;;;;;5028732;28;20045;-79
2022/04/03 12:19:42;;;;;;;4.25;0.88;;;7.90;99.90;;;;;;5037534;28;20053;-80
2022/04/03 12:22:10;;;;;;;1.95;0.50;;;7.70;99.90;;;;;;5030658;28;20067;-79
2022/04/03 12:24:38;;;;;;;1.80;0.60;;;7.90;99.90;;;;;;5028914;28;20065;-80
2022/04/03 12:27:25;;;;;;;1.88;0.50;;;7.40;99.90;;;;;;5031920;28;20072;-79
2022/04/03 12:29:56;;;;;;;3.05;0.70;;;7.20;99.90;;;;;;5027428;28;20053;-79
2022/04/03 12:32:36;;;;;;;4.18;1.42;;;7.20;99.90;;;;;;5030698;28;20053;-79
2022/04/03 12:35:05;;;;;;;1.83;0.77;;;7.30;99.90;;;;;;5029009;28;20111;-79
2022/04/03 12:37:40;;;;;;;3.13;1.10;;;7.10;99.90;;;;;;5033782;28;20147;-80
2022/04/03 12:40:08;;;;;;;1.65;0.45;;;7.10;99.90;;;;;;5035671;28;20051;-80
2022/04/03 12:42:45;;;;;;;3.45;1.25;;;7.10;99.90;;;;;;5026999;28;20056;-80
2022/04/03 12:45:16;;;;;;;2.05;0.80;;;7.10;99.90;;;;;;5043201;28;20052;-79
2022/04/03 12:48:03;;;;;;;3.20;1.30;;;7.10;99.90;;;;;;5033178;28;20103;-81
2022/04/03 12:50:38;;;;;;;0.75;0.40;;;7.20;99.90;;;;;;5041607;28;20061;-79
2022/04/03 12:53:06;;;;;;;0.77;0.38;;;7.50;99.90;;;;;;5029400;28;20038;-79
2022/04/03 12:55:34;;;;;;;25.50;11.70;;;7.90;99.90;;;;;;5032764;28;20079;-79
2022/04/03 13:00:56;;;;;;;1.50;0.30;;;8.70;99.90;;;;;;5033795;28;20156;-78